Time;durP1;ratioP1;P1;durP2;ratioP2;P2;SDS_P1;SDS_P2;PMS_P1;PMS_P2;Temp;Humidity;BMP_temperature;BMP_pressure;BME280_temperature;BME280_humidity;BME280_pressure;Samples;Min_cycle;Max_cycle;Signal;HPM_P1;HPM_P2
2021/11/13 00:01:34;;;;;;;3.88;0.60;;;;;;;;;;5049169;28;20143;-58
2021/11/13 00:04:00;;;;;;;2.10;0.68;;;;;;;;;;5048306;28;20055;-57
2021/11/13 00:06:26;;;;;;;1.10;0.40;;;;;;;;;;5047304;28;20067;-58
2021/11/13 00:08:52;;;;;;;1.45;0.50;;;;;;;;;;5048399;28;20048;-58
2021/11/13 00:11:18;;;;;;;3.42;0.50;;;;;;;;;;5048417;28;20045;-58
2021/11/13 00:13:46;;;;;;;1.95;0.50;;;;;;;;;;5049375;28;20040;-58
2021/11/13 00:16:12;;;;;;;1.88;0.60;;;;;;;;;;5047694;28;20052;-56
2021/11/13 00:18:38;;;;;;;2.97;0.73;;;;;;;;;;5047994;28;20094;-58
2021/11/13 00:21:05;;;;;;;9.57;1.00;;;;;;;;;;5048253;28;20044;-58
2021/11/13 00:23:31;;;;;;;5.60;1.10;;;;;;;;;;5046323;28;20060;-58
2021/11/13 00:25:58;;;;;;;6.65;0.88;;;;;;;;;;5021613;28;20152;-57
2021/11/13 00:28:24;;;;;;;1.73;0.43;;;;;;;;;;5024211;28;20060;-58
2021/11/13 00:30:50;;;;;;;4.47;0.93;;;;;;;;;;5027969;28;20037;-57
2021/11/13 00:33:16;;;;;;;2.80;0.90;;;;;;;;;;5032334;28;20048;-58
2021/11/13 00:35:42;;;;;;;4.55;0.95;;;;;;;;;;5019879;28;20140;-58
2021/11/13 00:38:07;;;;;;;6.03;0.88;;;;;;;;;;5020567;28;20046;-58
2021/11/13 00:40:34;;;;;;;3.53;0.85;;;;;;;;;;5022173;28;20134;-58
2021/11/13 00:43:00;;;;;;;4.88;0.73;;;;;;;;;;5019958;28;20060;-58
2021/11/13 00:45:26;;;;;;;1.63;0.73;;;;;;;;;;5024905;28;21888;-58
2021/11/13 00:47:52;;;;;;;6.55;0.60;;;;;;;;;;5047492;28;20020;-58
2021/11/13 00:50:18;;;;;;;3.53;0.88;;;;;;;;;;5030110;28;20032;-57
2021/11/13 00:52:44;;;;;;;5.78;1.00;;;;;;;;;;5050670;28;20024;-60
2021/11/13 00:55:11;;;;;;;4.65;1.23;;;;;;;;;;5049246;28;20048;-57
2021/11/13 00:57:37;;;;;;;3.60;0.75;;;;;;;;;;5037586;28;20435;-58
2021/11/13 01:00:07;;;;;;;3.92;0.82;;;;;;;;;;5037950;28;20422;-55
2021/11/13 01:02:33;;;;;;;3.88;1.02;;;;;;;;;;5027871;28;20044;-58
2021/11/13 01:04:59;;;;;;;4.35;0.88;;;;;;;;;;5025746;28;20916;-58
2021/11/13 01:07:25;;;;;;;8.70;1.05;;;;;;;;;;5027927;28;20131;-58
2021/11/13 01:09:52;;;;;;;4.00;0.90;;;;;;;;;;5027596;28;20061;-57
2021/11/13 01:12:18;;;;;;;5.53;1.10;;;;;;;;;;5025258;28;20034;-59
2021/11/13 01:14:44;;;;;;;4.22;1.73;;;;;;;;;;5038096;28;20413;-59
2021/11/13 01:17:11;;;;;;;10.18;6.05;;;;;;;;;;5027704;28;20053;-59
2021/11/13 01:19:38;;;;;;;6.68;2.42;;;;;;;;;;5019877;28;20917;-57
2021/11/13 01:22:04;;;;;;;7.68;3.08;;;;;;;;;;5036296;28;20560;-58
2021/11/13 01:24:30;;;;;;;8.50;3.75;;;;;;;;;;5020397;28;20049;-57
2021/11/13 01:26:56;;;;;;;8.07;1.70;;;;;;;;;;5020296;28;20160;-57
2021/11/13 01:29:21;;;;;;;8.45;2.38;;;;;;;;;;5021819;28;20038;-59
2021/11/13 01:31:47;;;;;;;9.02;1.83;;;;;;;;;;5020719;28;21079;-59
2021/11/13 01:34:13;;;;;;;8.63;1.65;;;;;;;;;;5021047;28;20401;-59
2021/11/13 01:36:39;;;;;;;12.55;1.67;;;;;;;;;;5020224;28;20072;-59
2021/11/13 01:39:05;;;;;;;17.00;5.80;;;;;;;;;;5022321;28;20557;-58
2021/11/13 01:41:31;;;;;;;13.25;6.68;;;;;;;;;;5021310;28;20037;-58
2021/11/13 01:43:57;;;;;;;13.57;3.40;;;;;;;;;;5022800;28;20037;-56
2021/11/13 01:46:23;;;;;;;11.07;3.15;;;;;;;;;;5020947;28;20095;-56
2021/11/13 01:48:49;;;;;;;19.30;2.60;;;;;;;;;;5022167;28;20037;-58
2021/11/13 01:51:16;;;;;;;4.50;1.30;;;;;;;;;;5035748;28;20038;-58
2021/11/13 01:53:44;;;;;;;6.53;1.20;;;;;;;;;;5046295;28;20040;-58
2021/11/13 01:56:16;;;;;;;21.42;9.52;;;;;;;;;;5046423;28;20521;-57
2021/11/13 01:58:42;;;;;;;6.63;1.27;;;;;;;;;;5044201;28;20037;-59
2021/11/13 02:01:07;;;;;;;4.20;1.10;;;;;;;;;;5045077;28;20064;-58
2021/11/13 02:03:33;;;;;;;4.10;1.42;;;;;;;;;;5045905;28;20045;-57
2021/11/13 02:05:59;;;;;;;10.43;1.15;;;;;;;;;;5045832;28;20052;-58
2021/11/13 02:08:25;;;;;;;5.82;1.40;;;;;;;;;;5045808;28;20044;-59
2021/11/13 02:10:51;;;;;;;11.30;1.48;;;;;;;;;;5048225;28;20472;-58
2021/11/13 02:13:17;;;;;;;5.22;1.77;;;;;;;;;;5048823;28;20098;-58
2021/11/13 02:15:44;;;;;;;8.70;1.38;;;;;;;;;;5045745;28;20075;-58
2021/11/13 02:18:10;;;;;;;5.25;1.40;;;;;;;;;;5047772;28;20025;-57
2021/11/13 02:20:40;;;;;;;10.23;1.48;;;;;;;;;;5047791;28;20025;-56
2021/11/13 02:23:08;;;;;;;7.55;1.60;;;;;;;;;;5048656;28;20103;-56
2021/11/13 02:25:34;;;;;;;10.15;1.33;;;;;;;;;;5046951;28;20013;-57
2021/11/13 02:28:01;;;;;;;9.85;1.80;;;;;;;;;;5050953;28;20504;-56
2021/11/13 02:30:27;;;;;;;3.97;1.08;;;;;;;;;;5048955;28;20024;-59
2021/11/13 02:32:54;;;;;;;5.72;1.88;;;;;;;;;;5041859;28;20379;-58
2021/11/13 02:35:21;;;;;;;5.30;1.15;;;;;;;;;;5046076;28;20041;-58
2021/11/13 02:37:48;;;;;;;9.93;1.50;;;;;;;;;;5045652;28;20037;-58
2021/11/13 02:40:14;;;;;;;7.13;1.85;;;;;;;;;;5047464;28;20037;-57
2021/11/13 02:42:40;;;;;;;7.35;1.38;;;;;;;;;;5044098;28;20036;-57
2021/11/13 02:45:08;;;;;;;11.93;1.90;;;;;;;;;;5046592;28;20115;-57
2021/11/13 02:47:34;;;;;;;7.68;1.10;;;;;;;;;;5045126;28;20036;-58
2021/11/13 02:50:00;;;;;;;2.88;0.95;;;;;;;;;;5046830;28;20036;-58
2021/11/13 02:52:26;;;;;;;8.55;2.22;;;;;;;;;;5045834;28;20483;-59
2021/11/13 02:54:52;;;;;;;9.40;2.30;;;;;;;;;;5046723;28;20382;-57
2021/11/13 02:57:18;;;;;;;3.25;1.20;;;;;;;;;;5046429;28;20049;-57
2021/11/13 02:59:45;;;;;;;8.43;1.30;;;;;;;;;;5024359;28;20037;-57
2021/11/13 03:02:11;;;;;;;7.70;1.42;;;;;;;;;;5023858;28;20045;-57
2021/11/13 03:04:37;;;;;;;3.00;1.00;;;;;;;;;;5030031;28;20048;-58
2021/11/13 03:07:04;;;;;;;6.93;1.30;;;;;;;;;;5022705;28;20041;-58
2021/11/13 03:09:29;;;;;;;9.63;1.42;;;;;;;;;;5021882;28;20037;-57
2021/11/13 03:11:55;;;;;;;7.00;1.63;;;;;;;;;;5022349;28;20150;-57
2021/11/13 03:14:21;;;;;;;7.70;1.17;;;;;;;;;;5037753;28;20644;-58
2021/11/13 03:16:47;;;;;;;8.23;1.17;;;;;;;;;;5022933;28;20045;-56
2021/11/13 03:19:13;;;;;;;4.80;1.35;;;;;;;;;;5020991;28;20124;-55
2021/11/13 03:21:42;;;;;;;4.25;1.00;;;;;;;;;;5032202;28;20049;-57
2021/11/13 03:24:08;;;;;;;7.18;1.30;;;;;;;;;;5041885;28;20044;-58
2021/11/13 03:26:34;;;;;;;5.68;1.20;;;;;;;;;;5022101;28;20138;-58
2021/11/13 03:29:11;;;;;;;9.77;1.45;;;;;;;;;;5020665;28;20473;-57
2021/11/13 03:31:37;;;;;;;3.35;1.05;;;;;;;;;;5024344;28;20041;-57
2021/11/13 03:34:04;;;;;;;4.30;1.10;;;;;;;;;;5026979;28;20040;-57
2021/11/13 03:36:29;;;;;;;4.53;0.90;;;;;;;;;;5021765;28;20090;-58
2021/11/13 03:38:55;;;;;;;7.65;1.13;;;;;;;;;;5028043;28;20032;-57
2021/11/13 03:41:22;;;;;;;4.63;1.20;;;;;;;;;;5030717;28;20041;-57
2021/11/13 03:43:49;;;;;;;5.85;1.50;;;;;;;;;;5014817;28;20041;-56
2021/11/13 03:46:14;;;;;;;7.32;1.25;;;;;;;;;;5015016;28;20336;-57
2021/11/13 03:48:41;;;;;;;7.20;1.30;;;;;;;;;;5016695;28;20037;-53
2021/11/13 03:51:07;;;;;;;3.28;0.93;;;;;;;;;;4997953;28;20030;-57
2021/11/13 03:53:33;;;;;;;3.28;0.98;;;;;;;;;;5016345;28;20086;-56
2021/11/13 03:55:59;;;;;;;4.35;1.25;;;;;;;;;;5014319;28;20042;-58
2021/11/13 03:58:26;;;;;;;7.43;1.50;;;;;;;;;;5016405;28;20045;-55
2021/11/13 04:00:51;;;;;;;4.93;1.30;;;;;;;;;;5015701;28;20509;-57
2021/11/13 04:03:18;;;;;;;5.57;1.38;;;;;;;;;;5013879;28;20033;-57
2021/11/13 04:05:44;;;;;;;9.18;1.25;;;;;;;;;;5014545;28;20037;-56
2021/11/13 04:08:10;;;;;;;4.43;1.90;;;;;;;;;;5016677;28;20041;-58
2021/11/13 04:10:36;;;;;;;7.95;1.58;;;;;;;;;;5014045;28;20289;-58
2021/11/13 04:13:02;;;;;;;7.03;1.30;;;;;;;;;;4999305;28;20037;-58
2021/11/13 04:15:27;;;;;;;3.70;1.23;;;;;;;;;;5019121;28;20125;-57
2021/11/13 04:17:53;;;;;;;5.53;1.60;;;;;;;;;;5021359;28;20042;-56
2021/11/13 04:20:19;;;;;;;5.10;1.70;;;;;;;;;;5037160;28;20048;-57
2021/11/13 04:22:46;;;;;;;4.03;1.45;;;;;;;;;;5007096;28;20037;-57
2021/11/13 04:25:12;;;;;;;8.52;2.35;;;;;;;;;;5013814;28;20170;-57
2021/11/13 04:27:38;;;;;;;3.97;1.50;;;;;;;;;;5023242;28;20045;-57
2021/11/13 04:30:06;;;;;;;5.15;1.55;;;;;;;;;;5024890;28;20094;-58
2021/11/13 04:32:34;;;;;;;5.32;1.58;;;;;;;;;;5027735;28;20748;-56
2021/11/13 04:37:26;;;;;;;3.63;1.30;;;;;;;;;;5021120;28;20132;-54
2021/11/13 04:39:52;;;;;;;8.63;1.90;;;;;;;;;;5005157;28;20396;-57
2021/11/13 04:42:18;;;;;;;6.60;1.77;;;;;;;;;;5020914;28;20057;-57
2021/11/13 04:44:44;;;;;;;5.03;2.10;;;;;;;;;;5003273;28;20350;-58
2021/11/13 04:47:10;;;;;;;6.82;2.03;;;;;;;;;;5026809;28;20152;-58
2021/11/13 04:49:36;;;;;;;4.00;1.70;;;;;;;;;;5024897;28;20126;-59
2021/11/13 04:52:03;;;;;;;6.55;1.73;;;;;;;;;;5025981;28;20160;-56
2021/11/13 04:54:29;;;;;;;7.30;1.90;;;;;;;;;;5024069;28;20056;-58
2021/11/13 04:56:55;;;;;;;4.95;1.90;;;;;;;;;;5030056;28;20052;-58
2021/11/13 04:59:28;;;;;;;5.70;2.05;;;;;;;;;;5034720;28;20049;-55
2021/11/13 05:01:59;;;;;;;9.82;2.00;;;;;;;;;;5020213;28;20052;-58
2021/11/13 05:04:25;;;;;;;4.20;1.60;;;;;;;;;;5010334;28;20789;-58
2021/11/13 05:06:51;;;;;;;4.30;1.80;;;;;;;;;;5019961;28;20161;-58
2021/11/13 05:09:16;;;;;;;4.38;2.28;;;;;;;;;;5030859;28;20056;-58
2021/11/13 05:11:42;;;;;;;5.50;2.67;;;;;;;;;;5017940;28;20121;-57
2021/11/13 05:14:08;;;;;;;10.43;3.10;;;;;;;;;;5018739;28;20045;-58
2021/11/13 05:16:34;;;;;;;10.40;3.47;;;;;;;;;;5016129;28;20052;-59
2021/11/13 05:19:00;;;;;;;8.68;3.90;;;;;;;;;;5016872;28;20079;-54
2021/11/13 05:21:26;;;;;;;6.38;2.60;;;;;;;;;;5024698;28;20088;-58
2021/11/13 05:23:51;;;;;;;7.43;2.65;;;;;;;;;;5030518;28;20036;-55
2021/11/13 05:26:17;;;;;;;4.10;1.65;;;;;;;;;;5026714;28;20040;-57
2021/11/13 05:28:44;;;;;;;5.07;1.60;;;;;;;;;;5025716;28;20039;-58
2021/11/13 05:31:11;;;;;;;3.17;1.08;;;;;;;;;;5023482;28;20552;-58
2021/11/13 05:33:37;;;;;;;3.80;1.27;;;;;;;;;;5024201;28;20041;-58
2021/11/13 05:36:03;;;;;;;3.58;1.20;;;;;;;;;;5023970;28;20044;-57
2021/11/13 05:38:29;;;;;;;4.05;1.30;;;;;;;;;;5021979;28;20498;-57
2021/11/13 05:40:55;;;;;;;4.88;1.40;;;;;;;;;;5018531;28;20064;-55
2021/11/13 05:43:21;;;;;;;4.75;1.58;;;;;;;;;;5029931;28;20464;-58
2021/11/13 05:45:47;;;;;;;5.53;1.52;;;;;;;;;;5029090;28;20071;-57
2021/11/13 05:48:14;;;;;;;4.28;1.52;;;;;;;;;;5046693;28;20036;-57
2021/11/13 05:50:40;;;;;;;6.72;1.80;;;;;;;;;;5044391;28;20128;-57
2021/11/13 05:53:06;;;;;;;6.45;1.60;;;;;;;;;;5023956;28;20047;-57
2021/11/13 05:55:32;;;;;;;4.15;1.98;;;;;;;;;;5042830;28;20636;-58
2021/11/13 05:57:58;;;;;;;4.13;1.58;;;;;;;;;;5028643;28;20425;-58
2021/11/13 06:00:24;;;;;;;3.88;1.60;;;;;;;;;;5035416;28;20057;-57
2021/11/13 06:02:51;;;;;;;3.97;1.65;;;;;;;;;;5031921;28;20144;-55
2021/11/13 06:05:17;;;;;;;5.57;1.88;;;;;;;;;;5024438;28;20160;-59
2021/11/13 06:07:43;;;;;;;6.70;1.80;;;;;;;;;;5044345;28;20067;-57
2021/11/13 06:10:11;;;;;;;7.57;1.40;;;;;;;;;;5045754;28;20033;-58
2021/11/13 06:12:37;;;;;;;4.47;1.92;;;;;;;;;;5047575;28;20040;-59
2021/11/13 06:15:03;;;;;;;6.18;1.77;;;;;;;;;;5015367;28;20040;-58
2021/11/13 06:17:29;;;;;;;6.80;1.75;;;;;;;;;;5046973;28;20047;-58
2021/11/13 06:19:56;;;;;;;4.63;1.65;;;;;;;;;;5047342;28;20045;-56
2021/11/13 06:22:22;;;;;;;4.70;1.65;;;;;;;;;;5047282;28;20128;-57
2021/11/13 06:24:47;;;;;;;8.55;1.55;;;;;;;;;;5046255;28;20114;-57
2021/11/13 06:27:16;;;;;;;4.40;1.52;;;;;;;;;;5047523;28;20068;-57
2021/11/13 06:29:44;;;;;;;3.72;1.40;;;;;;;;;;5043936;28;20413;-56
2021/11/13 06:32:11;;;;;;;4.75;1.70;;;;;;;;;;5029860;28;20115;-58
2021/11/13 06:34:39;;;;;;;4.72;1.65;;;;;;;;;;5045030;28;20044;-55
2021/11/13 06:37:05;;;;;;;5.28;2.10;;;;;;;;;;5029213;28;20104;-58
2021/11/13 06:39:30;;;;;;;4.57;1.88;;;;;;;;;;5025414;28;20041;-58
2021/11/13 06:41:56;;;;;;;5.78;1.92;;;;;;;;;;5025404;28;20033;-56
2021/11/13 06:44:22;;;;;;;3.75;1.88;;;;;;;;;;5019610;28;20029;-57
2021/11/13 06:46:48;;;;;;;4.65;1.83;;;;;;;;;;5026256;28;20082;-56
2021/11/13 06:49:14;;;;;;;6.00;2.22;;;;;;;;;;5027490;28;20033;-55
2021/11/13 06:51:41;;;;;;;3.97;1.20;;;;;;;;;;5048171;28;20033;-56
2021/11/13 06:54:07;;;;;;;7.00;1.88;;;;;;;;;;5047705;28;20033;-56
2021/11/13 06:56:33;;;;;;;4.70;1.20;;;;;;;;;;5029721;28;22297;-57
2021/11/13 06:58:59;;;;;;;7.40;1.83;;;;;;;;;;5048682;28;20021;-58
2021/11/13 07:01:24;;;;;;;6.50;1.40;;;;;;;;;;5048366;28;20488;-57
2021/11/13 07:03:50;;;;;;;8.00;1.65;;;;;;;;;;5048111;28;20178;-59
2021/11/13 07:06:16;;;;;;;5.60;1.75;;;;;;;;;;5029909;28;20064;-56
2021/11/13 07:08:42;;;;;;;2.63;1.00;;;;;;;;;;5047954;28;20259;-59
2021/11/13 07:11:08;;;;;;;4.32;1.30;;;;;;;;;;5049050;28;20029;-59
2021/11/13 07:13:33;;;;;;;8.10;1.27;;;;;;;;;;5046358;28;20130;-57
2021/11/13 07:15:59;;;;;;;4.00;1.10;;;;;;;;;;5047292;28;20021;-57
2021/11/13 07:18:25;;;;;;;6.40;1.00;;;;;;;;;;5047853;28;20021;-58
2021/11/13 07:20:54;;;;;;;2.50;0.82;;;;;;;;;;5048863;28;20074;-57
2021/11/13 07:23:20;;;;;;;2.55;0.80;;;;;;;;;;5049095;28;20025;-57
2021/11/13 07:25:46;;;;;;;6.30;1.10;;;;;;;;;;5028554;28;20090;-56
2021/11/13 07:28:15;;;;;;;2.10;0.70;;;;;;;;;;5046109;28;20033;-58
2021/11/13 07:30:45;;;;;;;3.28;0.90;;;;;;;;;;5046639;28;20049;-57
2021/11/13 07:33:11;;;;;;;4.60;1.02;;;;;;;;;;5048470;28;20067;-57
2021/11/13 07:35:38;;;;;;;2.60;0.65;;;;;;;;;;5047106;28;20491;-58
2021/11/13 07:38:04;;;;;;;5.50;1.00;;;;;;;;;;5028715;28;20495;-56
2021/11/13 07:40:30;;;;;;;6.40;0.90;;;;;;;;;;5046919;28;20043;-56
2021/11/13 07:42:56;;;;;;;4.60;0.90;;;;;;;;;;5047285;28;20031;-58
2021/11/13 07:45:22;;;;;;;2.60;0.90;;;;;;;;;;5047375;28;20032;-58
2021/11/13 07:47:48;;;;;;;2.90;0.90;;;;;;;;;;5048149;28;20040;-58
2021/11/13 07:50:15;;;;;;;3.45;1.15;;;;;;;;;;5047253;28;21655;-58
2021/11/13 07:52:42;;;;;;;2.78;1.00;;;;;;;;;;5050159;28;20906;-57
2021/11/13 07:55:08;;;;;;;2.63;0.93;;;;;;;;;;5047436;28;20029;-57
2021/11/13 07:57:34;;;;;;;5.72;1.05;;;;;;;;;;5046845;28;20025;-59
2021/11/13 08:00:00;;;;;;;3.33;1.20;;;;;;;;;;5046729;28;20086;-59
2021/11/13 08:02:27;;;;;;;5.47;1.25;;;;;;;;;;5046761;28;20072;-58
2021/11/13 08:04:54;;;;;;;2.22;0.75;;;;;;;;;;5021914;28;20048;-59
2021/11/13 08:07:20;;;;;;;2.92;1.05;;;;;;;;;;5046967;28;20037;-59
2021/11/13 08:09:46;;;;;;;3.35;1.52;;;;;;;;;;5046171;28;20036;-58
2021/11/13 08:12:12;;;;;;;2.65;1.10;;;;;;;;;;5023589;28;20748;-58
2021/11/13 08:14:38;;;;;;;4.45;1.10;;;;;;;;;;5045713;28;20150;-57
2021/11/13 08:17:04;;;;;;;4.90;0.85;;;;;;;;;;5046940;28;21855;-57
2021/11/13 08:19:30;;;;;;;1.92;0.70;;;;;;;;;;5047009;28;20033;-58
2021/11/13 08:21:56;;;;;;;2.88;0.88;;;;;;;;;;5048991;28;20040;-57
2021/11/13 08:24:21;;;;;;;3.25;0.90;;;;;;;;;;5049701;28;20428;-58
2021/11/13 08:26:47;;;;;;;2.33;0.65;;;;;;;;;;5050087;28;20084;-57
2021/11/13 08:29:14;;;;;;;2.40;0.77;;;;;;;;;;5050418;28;20634;-58
2021/11/13 08:31:40;;;;;;;2.88;0.80;;;;;;;;;;5050089;28;20031;-57
2021/11/13 08:34:06;;;;;;;3.03;0.90;;;;;;;;;;5049902;28;20025;-56
2021/11/13 08:36:32;;;;;;;4.75;0.90;;;;;;;;;;5051093;28;20025;-58
2021/11/13 08:38:57;;;;;;;3.72;1.13;;;;;;;;;;5050194;28;20029;-56
2021/11/13 08:41:23;;;;;;;3.40;1.13;;;;;;;;;;5051046;28;20039;-57
2021/11/13 08:43:49;;;;;;;3.70;1.25;;;;;;;;;;5028497;28;20353;-58
2021/11/13 08:46:16;;;;;;;3.83;1.02;;;;;;;;;;5048931;28;20102;-58
2021/11/13 08:48:42;;;;;;;9.63;1.52;;;;;;;;;;5048850;28;20048;-57
2021/11/13 08:51:08;;;;;;;3.80;1.25;;;;;;;;;;5050290;28;20027;-58
2021/11/13 08:53:34;;;;;;;2.80;1.08;;;;;;;;;;5024306;28;20034;-58
2021/11/13 08:56:00;;;;;;;4.10;1.35;;;;;;;;;;5021346;28;20112;-55
2021/11/13 08:58:26;;;;;;;3.30;0.90;;;;;;;;;;5022944;28;20049;-58
2021/11/13 09:00:59;;;;;;;2.38;0.73;;;;;;;;;;5023505;28;20537;-58
2021/11/13 09:03:34;;;;;;;1.58;0.68;;;;;;;;;;5021851;28;20042;-59
2021/11/13 09:06:00;;;;;;;8.00;1.08;;;;;;;;;;5022201;28;20104;-59
2021/11/13 09:08:26;;;;;;;2.72;0.80;;;;;;;;;;5021915;28;20577;-58
2021/11/13 09:10:53;;;;;;;3.42;0.80;;;;;;;;;;5021711;28;20041;-58
2021/11/13 09:13:23;;;;;;;3.00;0.80;;;;;;;;;;5022684;28;20449;-57
2021/11/13 09:15:49;;;;;;;6.97;1.17;;;;;;;;;;5021331;28;20045;-55
2021/11/13 09:18:15;;;;;;;3.10;0.70;;;;;;;;;;5023151;28;20120;-58
2021/11/13 09:20:41;;;;;;;2.40;0.82;;;;;;;;;;5020897;28;20128;-57
2021/11/13 09:23:08;;;;;;;3.88;0.80;;;;;;;;;;5022428;28;22065;-57
2021/11/13 09:25:34;;;;;;;4.55;0.70;;;;;;;;;;5020225;28;20053;-59
2021/11/13 09:28:00;;;;;;;1.83;0.70;;;;;;;;;;5021382;28;20397;-59
2021/11/13 09:30:28;;;;;;;2.65;0.80;;;;;;;;;;5021116;28;20033;-59
2021/11/13 09:32:55;;;;;;;1.20;0.40;;;;;;;;;;5019857;28;20044;-58
2021/11/13 09:35:21;;;;;;;2.63;0.60;;;;;;;;;;5021604;28;20037;-57
2021/11/13 09:37:48;;;;;;;5.90;0.52;;;;;;;;;;5023542;28;20065;-58
2021/11/13 09:40:16;;;;;;;1.27;0.50;;;;;;;;;;5022739;28;20180;-58
2021/11/13 09:42:44;;;;;;;1.13;0.47;;;;;;;;;;5035896;28;20042;-58
2021/11/13 09:45:10;;;;;;;4.07;0.70;;;;;;;;;;5020690;28;20041;-58
2021/11/13 09:47:36;;;;;;;3.65;0.60;;;;;;;;;;5020047;28;20059;-57
2021/11/13 09:50:04;;;;;;;1.50;0.50;;;;;;;;;;5021765;28;20068;-59
2021/11/13 09:52:29;;;;;;;4.82;0.65;;;;;;;;;;5020625;28;20056;-58
2021/11/13 09:54:55;;;;;;;2.63;0.68;;;;;;;;;;5020897;28;20042;-57
2021/11/13 09:57:23;;;;;;;1.08;0.43;;;;;;;;;;5000653;28;20132;-59
2021/11/13 09:59:49;;;;;;;1.73;0.50;;;;;;;;;;5020066;28;20128;-58
2021/11/13 10:02:14;;;;;;;3.50;0.60;;;;;;;;;;5020390;28;20065;-58
2021/11/13 10:04:40;;;;;;;5.80;0.88;;;;;;;;;;5019324;28;20053;-58
2021/11/13 10:07:06;;;;;;;3.30;0.73;;;;;;;;;;5020227;28;20095;-59
2021/11/13 10:09:32;;;;;;;2.08;0.70;;;;;;;;;;5020374;28;20041;-58
2021/11/13 10:11:58;;;;;;;2.00;0.70;;;;;;;;;;5020800;28;20123;-58
2021/11/13 10:14:35;;;;;;;2.03;0.80;;;;;;;;;;5019678;28;20057;-58
2021/11/13 10:17:02;;;;;;;3.58;0.70;;;;;;;;;;5021393;28;20045;-56
2021/11/13 10:19:28;;;;;;;2.40;0.68;;;;;;;;;;5020484;28;20041;-57
2021/11/13 10:21:56;;;;;;;6.55;0.90;;;;;;;;;;5019324;28;20052;-57
2021/11/13 10:24:24;;;;;;;2.47;0.80;;;;;;;;;;5018427;28;20084;-57
2021/11/13 10:26:51;;;;;;;2.47;0.85;;;;;;;;;;5020370;28;20044;-57
2021/11/13 10:29:19;;;;;;;3.67;0.95;;;;;;;;;;5019887;28;20114;-57
2021/11/13 10:31:44;;;;;;;2.13;0.77;;;;;;;;;;5021634;28;20494;-57
2021/11/13 10:34:12;;;;;;;3.17;0.90;;;;;;;;;;5020364;28;20045;-59
2021/11/13 10:36:43;;;;;;;2.50;0.80;;;;;;;;;;5018387;28;21797;-59
2021/11/13 10:39:13;;;;;;;2.83;0.85;;;;;;;;;;5018994;28;20893;-58
2021/11/13 10:41:49;;;;;;;2.60;0.80;;;;;;;;;;5020306;28;20049;-58
2021/11/13 10:44:17;;;;;;;2.58;0.70;;;;;;;;;;5019399;28;20056;-58
2021/11/13 10:46:44;;;;;;;3.75;1.00;;;;;;;;;;5046449;28;20044;-59
2021/11/13 10:49:10;;;;;;;2.33;0.70;;;;;;;;;;5046081;28;20565;-58
2021/11/13 10:51:38;;;;;;;3.85;1.40;;;;;;;;;;5044838;28;20508;-59
2021/11/13 10:54:11;;;;;;;6.72;2.10;;;;;;;;;;5046195;28;20041;-59
2021/11/13 10:56:56;;;;;;;4.05;1.10;;;;;;;;;;5044063;28;20040;-57
2021/11/13 10:59:29;;;;;;;2.20;0.80;;;;;;;;;;5045660;28;20049;-58
2021/11/13 11:02:03;;;;;;;3.15;1.15;;;;;;;;;;5045441;28;20056;-56
2021/11/13 11:04:31;;;;;;;1.80;0.60;;;;;;;;;;5044904;28;21082;-59
2021/11/13 11:07:02;;;;;;;3.35;0.90;;;;;;;;;;5047848;28;20033;-58
2021/11/13 11:09:38;;;;;;;3.45;1.10;;;;;;;;;;5047277;28;20090;-58
2021/11/13 11:12:07;;;;;;;1.95;0.68;;;;;;;;;;5046901;28;20036;-58
2021/11/13 11:14:33;;;;;;;3.67;0.80;;;;;;;;;;5044657;28;20036;-56
2021/11/13 11:17:03;;;;;;;2.33;0.88;;;;;;;;;;5046280;28;20393;-55
2021/11/13 11:19:30;;;;;;;2.22;0.82;;;;;;;;;;5043641;28;20045;-59
2021/11/13 11:22:01;;;;;;;2.42;0.80;;;;;;;;;;5045354;28;20506;-59
2021/11/13 11:24:32;;;;;;;2.58;0.93;;;;;;;;;;5043570;28;20405;-57
2021/11/13 11:26:59;;;;;;;2.30;0.77;;;;;;;;;;5045420;28;20442;-55
2021/11/13 11:29:26;;;;;;;2.97;0.90;;;;;;;;;;5045619;28;20037;-59
2021/11/13 11:31:55;;;;;;;6.43;1.05;;;;;;;;;;5045279;28;20044;-56
2021/11/13 11:34:29;;;;;;;2.90;1.10;;;;;;;;;;5041536;28;20033;-57
2021/11/13 11:36:57;;;;;;;3.45;1.27;;;;;;;;;;5044413;28;20120;-54
2021/11/13 11:39:24;;;;;;;8.43;1.20;;;;;;;;;;5046542;28;20083;-57
2021/11/13 11:41:51;;;;;;;2.38;0.88;;;;;;;;;;5028861;28;20055;-59
2021/11/13 11:44:17;;;;;;;2.50;1.00;;;;;;;;;;5048976;28;20037;-56
2021/11/13 11:46:44;;;;;;;2.60;0.93;;;;;;;;;;5047785;28;20044;-58
2021/11/13 11:49:11;;;;;;;2.83;0.90;;;;;;;;;;5044916;28;20055;-58
2021/11/13 11:51:37;;;;;;;2.58;0.85;;;;;;;;;;5043893;28;20068;-59
2021/11/13 11:54:06;;;;;;;4.45;1.88;;;;;;;;;;5044897;28;20041;-57
2021/11/13 11:56:33;;;;;;;4.68;1.83;;;;;;;;;;5045091;28;20048;-59
2021/11/13 11:59:00;;;;;;;5.38;1.50;;;;;;;;;;5044814;28;20127;-58
2021/11/13 12:01:30;;;;;;;2.80;1.10;;;;;;;;;;5044534;28;20051;-59
2021/11/13 12:04:12;;;;;;;4.80;1.20;;;;;;;;;;5045027;28;21075;-59
2021/11/13 12:06:39;;;;;;;3.30;1.10;;;;;;;;;;5045946;28;21017;-58
2021/11/13 12:09:05;;;;;;;3.20;1.20;;;;;;;;;;5046969;28;20116;-58
2021/11/13 12:11:35;;;;;;;3.25;1.17;;;;;;;;;;5044785;28;20064;-59
2021/11/13 12:14:19;;;;;;;3.30;1.10;;;;;;;;;;5026736;28;20040;-58
2021/11/13 12:16:45;;;;;;;3.63;1.25;;;;;;;;;;5024883;28;20037;-57
2021/11/13 12:19:11;;;;;;;4.47;0.98;;;;;;;;;;5022477;28;20048;-60
2021/11/13 12:21:37;;;;;;;2.80;1.10;;;;;;;;;;5017779;28;20790;-58
2021/11/13 12:24:06;;;;;;;4.80;1.10;;;;;;;;;;5018980;28;20033;-59
2021/11/13 12:26:35;;;;;;;3.90;1.35;;;;;;;;;;5018995;28;20033;-57
2021/11/13 12:29:03;;;;;;;3.63;1.30;;;;;;;;;;5019352;28;20136;-60
2021/11/13 12:31:36;;;;;;;3.53;1.30;;;;;;;;;;5017438;28;20056;-59
2021/11/13 12:34:08;;;;;;;3.42;1.35;;;;;;;;;;5018841;28;20091;-59
2021/11/13 12:36:47;;;;;;;3.20;1.20;;;;;;;;;;5017440;28;20051;-58
2021/11/13 12:39:14;;;;;;;3.25;1.20;;;;;;;;;;5018949;28;20059;-58
2021/11/13 12:41:43;;;;;;;7.05;1.27;;;;;;;;;;5017548;28;20061;-59
2021/11/13 12:44:26;;;;;;;4.18;1.33;;;;;;;;;;5018396;28;20416;-58
2021/11/13 12:46:53;;;;;;;3.38;1.35;;;;;;;;;;5033562;28;20046;-59
2021/11/13 12:49:19;;;;;;;3.20;1.17;;;;;;;;;;5018272;28;20045;-59
2021/11/13 12:51:54;;;;;;;4.28;1.30;;;;;;;;;;5019250;28;20069;-58
2021/11/13 12:54:24;;;;;;;4.15;1.40;;;;;;;;;;5016079;28;20065;-58
2021/11/13 12:56:52;;;;;;;2.88;1.05;;;;;;;;;;5018252;28;20041;-58
2021/11/13 12:59:18;;;;;;;3.58;1.08;;;;;;;;;;5018012;28;20040;-59
2021/11/13 13:01:51;;;;;;;5.78;1.38;;;;;;;;;;5042793;28;20048;-58
2021/11/13 13:04:17;;;;;;;3.50;1.50;;;;;;;;;;5044821;28;20421;-58
2021/11/13 13:06:47;;;;;;;3.10;1.30;;;;;;;;;;5024309;28;20037;-58
2021/11/13 13:09:15;;;;;;;7.07;1.58;;;;;;;;;;5028337;28;20148;-58
2021/11/13 13:11:50;;;;;;;3.67;1.30;;;;;;;;;;5038357;28;20045;-59
2021/11/13 13:14:17;;;;;;;4.75;1.48;;;;;;;;;;5046828;28;20047;-59
2021/11/13 13:16:46;;;;;;;3.92;1.60;;;;;;;;;;5046920;28;20037;-59
2021/11/13 13:19:13;;;;;;;2.47;0.90;;;;;;;;;;5047992;28;20565;-59
2021/11/13 13:21:39;;;;;;;2.65;0.88;;;;;;;;;;5047144;28;20135;-59
2021/11/13 13:24:11;;;;;;;2.90;0.90;;;;;;;;;;5039780;28;20317;-58
2021/11/13 13:26:38;;;;;;;2.03;0.77;;;;;;;;;;5027419;28;20053;-58
2021/11/13 13:29:11;;;;;;;2.13;0.77;;;;;;;;;;5029264;28;20033;-58
2021/11/13 13:31:37;;;;;;;2.67;0.90;;;;;;;;;;5028381;28;20061;-54
2021/11/13 13:34:03;;;;;;;2.95;1.10;;;;;;;;;;5033024;28;20424;-56
2021/11/13 13:36:29;;;;;;;3.67;1.02;;;;;;;;;;5028176;28;20064;-58
2021/11/13 13:38:59;;;;;;;3.05;0.80;;;;;;;;;;5030086;28;20476;-58
2021/11/13 13:41:24;;;;;;;3.97;1.30;;;;;;;;;;5021048;28;20146;-58
2021/11/13 13:43:51;;;;;;;2.40;0.80;;;;;;;;;;5021384;28;20113;-59
2021/11/13 13:46:23;;;;;;;2.40;0.70;;;;;;;;;;5023510;28;20572;-58
2021/11/13 13:48:50;;;;;;;4.20;1.23;;;;;;;;;;5049407;28;20109;-59
2021/11/13 13:51:18;;;;;;;1.83;0.70;;;;;;;;;;5049472;28;20033;-57
2021/11/13 13:53:45;;;;;;;2.15;0.68;;;;;;;;;;5027356;28;20111;-57
2021/11/13 13:56:18;;;;;;;3.72;0.85;;;;;;;;;;5047636;28;20095;-56
2021/11/13 13:58:44;;;;;;;2.67;0.85;;;;;;;;;;5047739;28;20064;-58
2021/11/13 14:01:09;;;;;;;2.70;1.05;;;;;;;;;;5047566;28;20116;-59
2021/11/13 14:03:35;;;;;;;3.10;0.88;;;;;;;;;;5048102;28;20055;-57
2021/11/13 14:06:02;;;;;;;2.20;0.85;;;;;;;;;;5047914;28;20073;-57
2021/11/13 14:08:28;;;;;;;2.00;0.80;;;;;;;;;;5048960;28;20121;-56
2021/11/13 14:10:54;;;;;;;4.05;0.90;;;;;;;;;;5047678;28;20040;-55
2021/11/13 14:13:21;;;;;;;3.03;1.00;;;;;;;;;;5045607;28;20108;-57
2021/11/13 14:15:57;;;;;;;2.33;0.73;;;;;;;;;;5047121;28;20066;-57
2021/11/13 14:18:43;;;;;;;2.78;0.90;;;;;;;;;;5047525;28;20060;-56
2021/11/13 14:21:09;;;;;;;2.95;1.15;;;;;;;;;;5047649;28;20052;-57
2021/11/13 14:23:37;;;;;;;2.65;0.88;;;;;;;;;;5033774;28;20370;-57
2021/11/13 14:26:07;;;;;;;2.03;0.60;;;;;;;;;;5033934;28;20025;-57
2021/11/13 14:28:44;;;;;;;3.55;0.80;;;;;;;;;;5026695;28;20036;-56
2021/11/13 14:31:16;;;;;;;1.33;0.57;;;;;;;;;;5027792;28;20041;-57
2021/11/13 14:33:46;;;;;;;2.55;0.70;;;;;;;;;;5024668;28;20048;-59
2021/11/13 14:36:11;;;;;;;2.55;0.60;;;;;;;;;;5026292;28;20037;-56
2021/11/13 14:38:37;;;;;;;2.15;0.55;;;;;;;;;;5025276;28;20187;-57
2021/11/13 14:41:10;;;;;;;1.38;0.50;;;;;;;;;;5025224;28;20049;-57
2021/11/13 14:43:36;;;;;;;1.20;0.40;;;;;;;;;;5022982;28;20045;-57
2021/11/13 14:46:16;;;;;;;1.45;0.50;;;;;;;;;;5028090;28;20448;-58